Time;durP1;ratioP1;P1;durP2;ratioP2;P2;SDS_P1;SDS_P2;PMS_P1;PMS_P2;Temp;Humidity;BMP_temperature;BMP_pressure;BME280_temperature;BME280_humidity;BME280_pressure;Samples;Min_cycle;Max_cycle;Signal;HPM_P1;HPM_P2
2022/10/20 00:00:41;;;;;;;4.03;2.40;;;11.00;84.10;;;;;;5073890;28;20033;-66
2022/10/20 00:03:06;;;;;;;5.22;2.50;;;11.00;84.30;;;;;;5074322;28;20027;-65
2022/10/20 00:05:32;;;;;;;4.63;2.70;;;11.00;84.60;;;;;;5073890;28;20099;-67
2022/10/20 00:07:57;;;;;;;3.03;2.33;;;10.90;85.00;;;;;;5073754;28;20025;-67
2022/10/20 00:10:23;;;;;;;6.35;2.40;;;11.00;84.80;;;;;;5073438;28;20116;-68
2022/10/20 00:12:49;;;;;;;4.40;2.50;;;10.90;85.10;;;;;;5076216;28;20108;-67
2022/10/20 00:15:15;;;;;;;4.57;2.33;;;10.90;85.60;;;;;;5093948;28;20032;-66
2022/10/20 00:17:41;;;;;;;4.82;2.13;;;10.90;86.00;;;;;;5093983;28;20373;-67
2022/10/20 00:20:07;;;;;;;11.57;2.78;;;10.80;86.00;;;;;;5094187;28;20062;-67
2022/10/20 00:22:33;;;;;;;8.38;2.63;;;10.80;86.20;;;;;;5093393;28;20024;-66
2022/10/20 00:24:58;;;;;;;5.82;2.70;;;10.70;86.40;;;;;;5076093;28;20073;-67
2022/10/20 00:27:24;;;;;;;3.72;2.33;;;10.70;86.80;;;;;;5093398;28;20029;-67
2022/10/20 00:29:49;;;;;;;3.30;2.35;;;10.70;87.10;;;;;;5093952;28;20036;-67
2022/10/20 00:32:15;;;;;;;3.80;2.20;;;10.60;87.40;;;;;;5093840;28;20043;-67
2022/10/20 00:34:41;;;;;;;7.35;2.45;;;10.60;87.60;;;;;;5093431;28;20054;-67
2022/10/20 00:37:06;;;;;;;5.43;2.47;;;10.60;88.00;;;;;;5093980;28;20103;-67
2022/10/20 00:39:32;;;;;;;7.03;2.65;;;10.50;88.60;;;;;;5093125;28;20044;-67
2022/10/20 00:42:01;;;;;;;5.10;2.90;;;10.50;89.50;;;;;;5093605;28;20046;-66
2022/10/20 00:44:48;;;;;;;4.50;3.10;;;10.50;90.00;;;;;;5093327;28;20146;-66
2022/10/20 00:47:27;;;;;;;4.43;2.63;;;10.50;90.20;;;;;;5093717;28;20603;-66
2022/10/20 00:49:57;;;;;;;3.95;2.65;;;10.50;90.10;;;;;;5075491;28;20032;-67
2022/10/20 00:52:23;;;;;;;8.27;3.05;;;10.40;90.10;;;;;;5092654;28;20031;-67
2022/10/20 00:54:49;;;;;;;3.33;2.58;;;10.40;90.20;;;;;;5094442;28;20107;-66
2022/10/20 00:57:16;;;;;;;3.58;2.85;;;10.40;90.20;;;;;;5095082;28;20048;-65
2022/10/20 00:59:42;;;;;;;5.82;2.90;;;10.40;90.40;;;;;;5095074;28;20660;-66
2022/10/20 01:02:09;;;;;;;4.50;3.03;;;10.30;90.50;;;;;;5094810;28;20034;-66
2022/10/20 01:04:36;;;;;;;4.53;2.60;;;10.30;90.60;;;;;;5093510;28;20028;-66
2022/10/20 01:07:02;;;;;;;6.15;3.20;;;10.30;90.70;;;;;;5094507;28;20054;-66
2022/10/20 01:09:28;;;;;;;3.45;3.00;;;10.30;90.80;;;;;;5094220;28;20020;-66
2022/10/20 01:12:00;;;;;;;6.72;2.80;;;10.30;91.00;;;;;;5093903;28;20032;-65
2022/10/20 01:14:44;;;;;;;6.57;3.30;;;10.20;91.20;;;;;;5093041;28;20055;-66
2022/10/20 01:17:35;;;;;;;5.68;2.97;;;10.20;91.30;;;;;;5092959;28;20511;-67
2022/10/20 01:20:28;;;;;;;4.05;2.63;;;10.20;91.50;;;;;;5061955;28;20126;-66
2022/10/20 01:23:21;;;;;;;5.00;3.10;;;10.20;91.30;;;;;;5093226;28;20078;-66
2022/10/20 01:25:55;;;;;;;4.30;2.90;;;10.20;91.40;;;;;;5093065;28;20020;-66
2022/10/20 01:28:59;;;;;;;6.43;3.25;;;10.20;91.80;;;;;;5093001;28;20035;-68
2022/10/20 01:31:56;;;;;;;4.75;3.15;;;10.20;91.60;;;;;;5010376;28;20041;-66
2022/10/20 01:34:28;;;;;;;6.93;3.00;;;10.10;91.80;;;;;;5010656;28;20073;-67
2022/10/20 01:37:01;;;;;;;6.28;3.03;;;10.10;91.90;;;;;;5010501;28;20116;-67
2022/10/20 01:39:51;;;;;;;5.20;3.10;;;10.10;92.10;;;;;;5010096;28;20030;-68
2022/10/20 01:42:25;;;;;;;6.07;3.13;;;10.10;92.00;;;;;;5010803;28;20060;-67
2022/10/20 01:44:54;;;;;;;6.35;3.10;;;10.10;92.20;;;;;;4998927;28;20038;-67
2022/10/20 01:47:23;;;;;;;5.80;3.42;;;10.10;92.10;;;;;;4991015;28;20034;-67
2022/10/20 01:49:50;;;;;;;7.93;3.15;;;10.00;92.30;;;;;;4990677;28;20130;-67
2022/10/20 01:52:16;;;;;;;5.25;3.45;;;10.00;92.40;;;;;;4990700;28;20519;-67
2022/10/20 01:54:42;;;;;;;4.78;2.67;;;10.00;92.20;;;;;;4990312;28;20038;-66
2022/10/20 01:57:29;;;;;;;4.78;2.88;;;10.10;92.60;;;;;;4990708;28;20479;-66
2022/10/20 01:59:54;;;;;;;7.32;2.70;;;10.10;92.80;;;;;;4990872;28;20148;-66
2022/10/20 02:02:30;;;;;;;5.25;2.80;;;10.00;93.00;;;;;;5025081;28;20538;-66
2022/10/20 02:05:31;;;;;;;6.20;2.65;;;10.00;93.20;;;;;;5051997;28;20029;-68
2022/10/20 02:08:14;;;;;;;9.27;3.00;;;10.00;93.30;;;;;;5052397;28;20104;-66
2022/10/20 02:10:49;;;;;;;8.02;2.95;;;9.90;93.60;;;;;;5051587;28;20171;-67
2022/10/20 02:13:18;;;;;;;8.30;3.83;;;9.80;93.70;;;;;;5052000;28;20025;-67
2022/10/20 02:15:49;;;;;;;3.05;2.35;;;9.80;94.30;;;;;;5051656;28;20123;-67
2022/10/20 02:18:20;;;;;;;4.43;2.90;;;9.80;93.90;;;;;;5047499;28;20539;-67
2022/10/20 02:20:49;;;;;;;6.15;3.10;;;9.70;94.10;;;;;;5051645;28;20037;-67
2022/10/20 02:23:15;;;;;;;5.28;2.92;;;9.70;94.30;;;;;;5051959;28;20033;-67
2022/10/20 02:25:41;;;;;;;6.45;2.92;;;9.60;94.70;;;;;;5051636;28;20022;-67
2022/10/20 02:28:12;;;;;;;5.30;3.20;;;9.60;95.10;;;;;;5052072;28;20048;-67
2022/10/20 02:30:39;;;;;;;6.25;3.67;;;9.60;95.30;;;;;;5051371;28;20033;-66
2022/10/20 02:33:06;;;;;;;5.32;3.42;;;9.50;95.20;;;;;;5051661;28;20036;-66
2022/10/20 02:35:32;;;;;;;10.20;3.53;;;9.50;95.50;;;;;;5051255;28;20445;-66
2022/10/20 02:37:59;;;;;;;6.43;3.67;;;9.50;95.50;;;;;;5051843;28;20086;-66
2022/10/20 02:40:25;;;;;;;5.53;3.38;;;9.40;95.60;;;;;;5051643;28;20492;-67
2022/10/20 02:42:50;;;;;;;10.18;3.65;;;9.40;95.60;;;;;;5051998;28;20021;-67
2022/10/20 02:45:16;;;;;;;6.97;3.70;;;9.40;95.80;;;;;;5051904;28;20470;-67
2022/10/20 02:47:42;;;;;;;7.78;3.88;;;9.40;96.10;;;;;;5051026;28;20096;-65
2022/10/20 02:50:08;;;;;;;5.63;3.50;;;9.40;96.30;;;;;;5051393;28;20051;-65
2022/10/20 02:52:35;;;;;;;6.72;3.70;;;9.40;95.80;;;;;;5051407;28;20373;-66
2022/10/20 02:55:01;;;;;;;7.03;4.05;;;9.40;95.90;;;;;;5051838;28;20056;-66
2022/10/20 02:57:27;;;;;;;12.52;4.07;;;9.40;96.10;;;;;;5069937;28;20118;-68
2022/10/20 02:59:53;;;;;;;4.65;3.35;;;9.40;96.10;;;;;;5071264;28;20474;-66
2022/10/20 03:02:18;;;;;;;6.70;3.20;;;9.40;96.20;;;;;;5071644;28;20453;-66
2022/10/20 03:04:44;;;;;;;7.45;3.15;;;9.40;96.00;;;;;;5071108;28;20025;-66
2022/10/20 03:07:10;;;;;;;9.05;3.80;;;9.40;96.00;;;;;;5071347;28;20025;-67
2022/10/20 03:09:36;;;;;;;6.82;3.28;;;9.40;96.50;;;;;;5071064;28;20035;-67
2022/10/20 03:12:02;;;;;;;6.13;3.67;;;9.40;95.80;;;;;;5071287;28;20020;-67
2022/10/20 03:14:28;;;;;;;6.90;3.28;;;9.40;95.90;;;;;;5071607;28;20032;-68
2022/10/20 03:16:53;;;;;;;4.32;3.40;;;9.40;96.00;;;;;;5075427;28;20025;-67
2022/10/20 03:19:19;;;;;;;10.80;3.72;;;9.40;96.10;;;;;;5075588;28;20104;-67
2022/10/20 03:21:45;;;;;;;6.22;3.53;;;9.40;96.20;;;;;;5075093;28;20108;-67
2022/10/20 03:24:11;;;;;;;3.67;3.20;;;9.30;96.20;;;;;;5075049;28;20029;-67
2022/10/20 03:26:37;;;;;;;6.43;3.08;;;9.30;96.30;;;;;;5074641;28;20032;-67
2022/10/20 03:29:03;;;;;;;10.90;3.30;;;9.40;96.20;;;;;;5075489;28;20091;-66
2022/10/20 03:31:28;;;;;;;4.10;3.60;;;9.30;95.90;;;;;;5075104;28;20028;-68
2022/10/20 03:33:54;;;;;;;5.50;3.55;;;9.30;95.90;;;;;;5074210;28;20463;-67
2022/10/20 03:36:20;;;;;;;6.78;3.83;;;9.30;96.00;;;;;;5074921;28;20558;-66
2022/10/20 03:38:46;;;;;;;5.15;3.15;;;9.30;96.40;;;;;;5074173;28;20060;-66
2022/10/20 03:41:11;;;;;;;4.38;3.60;;;9.30;96.40;;;;;;5075009;28;20029;-67
2022/10/20 03:43:40;;;;;;;6.63;3.50;;;9.30;96.30;;;;;;5072864;28;20025;-67
2022/10/20 03:46:09;;;;;;;6.25;3.42;;;9.30;96.30;;;;;;5073820;28;20099;-66
2022/10/20 03:48:35;;;;;;;7.15;3.80;;;9.30;96.80;;;;;;5073811;28;20032;-66
2022/10/20 03:51:02;;;;;;;11.50;3.78;;;9.20;96.50;;;;;;5074280;28;20029;-66
2022/10/20 03:53:28;;;;;;;4.82;3.22;;;9.20;96.90;;;;;;5071284;28;20362;-67
2022/10/20 03:55:54;;;;;;;6.18;3.40;;;9.20;97.10;;;;;;5068779;28;20102;-67
2022/10/20 03:58:20;;;;;;;3.83;3.10;;;9.10;97.20;;;;;;5069576;28;20033;-66
2022/10/20 04:00:46;;;;;;;7.22;3.63;;;9.10;97.40;;;;;;5066423;28;20032;-66
2022/10/20 04:03:12;;;;;;;6.15;3.65;;;9.10;97.30;;;;;;5069774;28;20526;-66
2022/10/20 04:05:37;;;;;;;4.65;3.30;;;9.00;97.70;;;;;;5073652;28;20033;-67
2022/10/20 04:08:03;;;;;;;6.07;3.55;;;9.00;97.80;;;;;;5074153;28;20025;-67
2022/10/20 04:10:29;;;;;;;5.78;3.60;;;9.00;98.10;;;;;;5077277;28;20036;-67
2022/10/20 04:12:59;;;;;;;5.80;3.28;;;9.00;98.10;;;;;;5093778;28;20402;-67
2022/10/20 04:15:25;;;;;;;6.30;4.00;;;9.00;98.30;;;;;;5094328;28;20024;-67
2022/10/20 04:17:51;;;;;;;6.20;3.60;;;9.00;98.50;;;;;;5074163;28;20436;-66
2022/10/20 04:20:17;;;;;;;5.85;3.95;;;8.90;98.50;;;;;;5074045;28;20067;-66
2022/10/20 04:22:42;;;;;;;12.23;4.72;;;8.90;98.60;;;;;;5073628;28;20063;-66
2022/10/20 04:25:10;;;;;;;7.35;4.47;;;8.90;99.10;;;;;;5073625;28;20161;-66
2022/10/20 04:27:37;;;;;;;8.25;4.30;;;8.80;99.00;;;;;;5072589;28;20032;-67
2022/10/20 04:30:03;;;;;;;8.20;4.45;;;8.80;99.10;;;;;;5073925;28;20032;-66
2022/10/20 04:32:28;;;;;;;8.38;4.55;;;8.80;99.20;;;;;;5073913;28;20025;-65
2022/10/20 04:34:54;;;;;;;6.50;4.28;;;8.80;99.30;;;;;;5073383;28;20603;-66
2022/10/20 04:37:20;;;;;;;7.63;4.07;;;8.70;99.50;;;;;;5073767;28;20028;-66
2022/10/20 04:39:45;;;;;;;6.07;4.53;;;8.70;99.90;;;;;;5072849;28;20376;-67
2022/10/20 04:42:11;;;;;;;8.25;4.10;;;8.70;99.80;;;;;;5073633;28;20032;-66
2022/10/20 04:44:36;;;;;;;5.80;4.18;;;8.70;99.80;;;;;;5073144;28;20035;-66
2022/10/20 04:47:02;;;;;;;6.28;4.25;;;8.70;99.90;;;;;;5073487;28;20040;-67
2022/10/20 04:49:28;;;;;;;5.47;4.20;;;8.70;99.90;;;;;;5073906;28;20078;-67
2022/10/20 04:51:53;;;;;;;7.97;4.30;;;8.70;99.90;;;;;;5072685;28;20029;-67
2022/10/20 04:54:19;;;;;;;6.18;3.90;;;8.70;99.90;;;;;;5073124;28;20050;-67
2022/10/20 04:56:45;;;;;;;6.28;4.40;;;8.60;99.90;;;;;;5072753;28;20071;-67
2022/10/20 04:59:10;;;;;;;7.28;4.38;;;8.60;99.90;;;;;;5089080;28;20036;-67
2022/10/20 05:01:36;;;;;;;7.85;4.22;;;8.60;99.90;;;;;;5072930;28;20032;-67
2022/10/20 05:04:01;;;;;;;9.32;4.32;;;8.60;99.90;;;;;;5072772;28;20029;-67
2022/10/20 05:06:29;;;;;;;10.32;4.38;;;8.60;99.90;;;;;;5073512;28;20028;-67
2022/10/20 05:08:59;;;;;;;6.22;4.68;;;8.60;99.90;;;;;;5054634;28;20572;-67
2022/10/20 05:11:26;;;;;;;8.27;4.60;;;8.60;99.90;;;;;;5072879;28;20036;-66
2022/10/20 05:13:52;;;;;;;10.43;5.00;;;8.60;99.90;;;;;;5072573;28;20103;-67
2022/10/20 05:16:18;;;;;;;7.95;4.97;;;8.60;99.90;;;;;;5073016;28;20099;-68
2022/10/20 05:18:44;;;;;;;8.23;5.03;;;8.60;99.90;;;;;;5072401;28;20031;-68
2022/10/20 05:21:14;;;;;;;8.90;5.43;;;8.60;99.90;;;;;;5073101;28;20092;-67
2022/10/20 05:23:40;;;;;;;9.90;5.18;;;8.50;99.90;;;;;;5072183;28;20016;-68
2022/10/20 05:26:09;;;;;;;13.70;5.38;;;8.60;99.90;;;;;;5072760;28;20119;-67
2022/10/20 05:28:35;;;;;;;9.18;4.93;;;8.60;99.90;;;;;;5072588;28;20380;-68
2022/10/20 05:31:05;;;;;;;11.98;5.35;;;8.60;99.90;;;;;;5072111;28;20032;-68
2022/10/20 05:33:31;;;;;;;6.47;4.93;;;8.60;99.90;;;;;;5072725;28;20033;-68
2022/10/20 05:35:57;;;;;;;6.60;4.75;;;8.60;99.90;;;;;;5071864;28;20039;-68
2022/10/20 05:38:23;;;;;;;7.28;5.10;;;8.60;99.90;;;;;;5072723;28;20103;-67
2022/10/20 05:40:49;;;;;;;7.80;4.60;;;8.60;99.90;;;;;;5071973;28;20032;-67
2022/10/20 05:43:14;;;;;;;9.07;5.38;;;8.60;99.90;;;;;;5072723;28;20112;-67
2022/10/20 05:45:40;;;;;;;12.18;5.88;;;8.60;99.90;;;;;;5072149;28;20465;-68
2022/10/20 05:48:06;;;;;;;11.43;5.40;;;8.60;99.90;;;;;;5072772;28;20036;-68
2022/10/20 05:50:32;;;;;;;12.52;5.43;;;8.60;99.90;;;;;;5072288;28;20033;-68
2022/10/20 05:52:57;;;;;;;10.82;6.13;;;8.70;99.90;;;;;;5072047;28;20037;-68
2022/10/20 05:55:23;;;;;;;10.70;5.28;;;8.70;99.90;;;;;;5072324;28;20023;-68
2022/10/20 05:57:49;;;;;;;13.70;5.70;;;8.70;99.90;;;;;;5072230;28;20372;-68
2022/10/20 06:00:17;;;;;;;11.20;5.72;;;8.60;99.90;;;;;;5072590;28;20032;-67
2022/10/20 06:02:43;;;;;;;13.85;6.45;;;8.60;99.90;;;;;;5072119;28;20473;-68
2022/10/20 06:05:09;;;;;;;9.90;5.40;;;8.70;99.90;;;;;;5072654;28;20081;-68
2022/10/20 06:07:35;;;;;;;12.73;5.28;;;8.70;99.90;;;;;;5078257;28;20024;-68
2022/10/20 06:10:01;;;;;;;16.90;5.60;;;8.80;99.90;;;;;;5092437;28;20044;-68
2022/10/20 06:12:27;;;;;;;10.85;5.03;;;8.80;99.90;;;;;;5092639;28;20153;-67
2022/10/20 06:14:52;;;;;;;18.05;5.68;;;8.80;99.90;;;;;;5092302;28;20475;-67
2022/10/20 06:17:18;;;;;;;9.98;4.63;;;8.90;99.90;;;;;;5092597;28;20483;-67
2022/10/20 06:19:43;;;;;;;8.60;4.60;;;8.90;99.40;;;;;;5092100;28;20085;-67
2022/10/20 06:22:09;;;;;;;7.47;5.35;;;8.90;99.40;;;;;;5092822;28;20099;-68
2022/10/20 06:24:35;;;;;;;11.30;4.30;;;8.90;99.40;;;;;;5092275;28;20379;-67
2022/10/20 06:27:00;;;;;;;8.48;4.47;;;8.90;99.40;;;;;;5091921;28;20035;-67
2022/10/20 06:29:26;;;;;;;10.07;5.00;;;9.00;99.50;;;;;;5092692;28;20024;-67
2022/10/20 06:31:54;;;;;;;14.52;4.95;;;9.00;99.30;;;;;;5092078;28;20032;-67
2022/10/20 06:34:22;;;;;;;8.68;4.65;;;9.00;99.50;;;;;;5066145;28;20020;-67
2022/10/20 06:36:49;;;;;;;6.03;4.25;;;9.00;99.70;;;;;;5091990;28;20035;-67
2022/10/20 06:39:17;;;;;;;8.30;4.88;;;9.00;99.70;;;;;;5092207;28;20059;-68
2022/10/20 06:41:50;;;;;;;6.80;4.65;;;9.10;99.60;;;;;;5073658;28;20030;-68
2022/10/20 06:44:16;;;;;;;11.50;5.03;;;9.10;99.40;;;;;;5092431;28;20409;-68
2022/10/20 06:46:42;;;;;;;9.20;4.85;;;9.10;99.40;;;;;;5073851;28;20080;-67
2022/10/20 06:49:10;;;;;;;7.93;5.07;;;9.20;99.40;;;;;;5092769;28;20054;-67
2022/10/20 06:51:36;;;;;;;8.65;5.20;;;9.30;99.30;;;;;;5096084;28;20028;-67
2022/10/20 06:54:03;;;;;;;8.07;5.65;;;9.30;98.90;;;;;;5077374;28;20099;-67
2022/10/20 06:56:31;;;;;;;6.22;4.82;;;9.30;99.20;;;;;;5075934;28;20084;-67
2022/10/20 06:58:57;;;;;;;8.52;5.50;;;9.40;99.00;;;;;;5075395;28;20282;-68
2022/10/20 07:01:32;;;;;;;13.45;6.57;;;9.40;98.70;;;;;;5075701;28;20037;-67
2022/10/20 07:04:00;;;;;;;9.90;5.18;;;9.40;98.90;;;;;;5075237;28;20052;-68
2022/10/20 07:06:37;;;;;;;11.05;5.22;;;9.50;99.00;;;;;;5075618;28;20028;-68
2022/10/20 07:09:06;;;;;;;9.88;5.40;;;9.50;99.00;;;;;;5075415;28;20048;-68
2022/10/20 07:11:31;;;;;;;9.18;5.80;;;9.60;99.10;;;;;;5075636;28;20419;-68
2022/10/20 07:13:58;;;;;;;8.60;5.38;;;9.80;99.10;;;;;;5075117;28;20035;-68
2022/10/20 07:16:27;;;;;;;9.63;5.55;;;10.00;98.70;;;;;;5075495;28;20580;-67
2022/10/20 07:18:52;;;;;;;7.55;4.88;;;10.30;98.20;;;;;;5075186;28;20046;-67
2022/10/20 07:21:25;;;;;;;8.15;4.78;;;10.70;97.50;;;;;;5057509;28;20029;-67
2022/10/20 07:23:51;;;;;;;8.93;5.35;;;11.00;95.70;;;;;;5074824;28;20024;-68
2022/10/20 07:26:19;;;;;;;5.28;4.22;;;11.30;95.40;;;;;;5075532;28;20033;-67
2022/10/20 07:28:47;;;;;;;5.93;4.07;;;11.60;93.40;;;;;;5074979;28;20024;-68
2022/10/20 07:31:16;;;;;;;8.52;4.50;;;11.90;92.40;;;;;;5075143;28;20036;-67
2022/10/20 07:33:42;;;;;;;7.22;4.72;;;12.10;91.40;;;;;;5074763;28;20107;-67
2022/10/20 07:36:16;;;;;;;8.80;4.60;;;12.40;90.60;;;;;;5075079;28;20090;-68
2022/10/20 07:38:42;;;;;;;11.15;5.07;;;12.70;89.00;;;;;;5074838;28;20051;-69
2022/10/20 07:41:09;;;;;;;6.25;4.32;;;12.90;87.00;;;;;;5075233;28;20170;-68
2022/10/20 07:43:36;;;;;;;8.30;4.82;;;13.10;83.80;;;;;;5075051;28;20047;-68
2022/10/20 07:46:02;;;;;;;6.95;4.72;;;13.20;84.30;;;;;;5074850;28;20067;-67
2022/10/20 07:48:27;;;;;;;8.10;4.80;;;13.40;82.70;;;;;;5075374;28;20039;-68
2022/10/20 07:50:53;;;;;;;7.30;4.43;;;13.60;81.30;;;;;;5074402;28;20040;-67
2022/10/20 07:53:18;;;;;;;6.25;4.03;;;13.70;79.90;;;;;;5074528;28;20400;-68
2022/10/20 07:55:44;;;;;;;6.10;4.22;;;13.90;80.20;;;;;;5074112;28;20041;-66
2022/10/20 07:58:11;;;;;;;7.32;4.38;;;14.10;79.70;;;;;;5056526;28;20116;-67
2022/10/20 08:00:37;;;;;;;5.70;3.80;;;14.00;76.20;;;;;;5073584;28;20033;-67
2022/10/20 08:03:03;;;;;;;6.35;4.10;;;14.10;76.90;;;;;;5074319;28;20021;-67
2022/10/20 08:05:29;;;;;;;8.50;4.95;;;14.40;74.70;;;;;;5056764;28;20046;-67
2022/10/20 08:07:55;;;;;;;5.47;4.20;;;14.50;73.60;;;;;;5091302;28;20583;-68
2022/10/20 08:10:20;;;;;;;8.80;4.40;;;14.50;73.20;;;;;;5094618;28;20038;-68
2022/10/20 08:12:46;;;;;;;9.30;4.68;;;14.50;72.30;;;;;;5094014;28;20024;-68
2022/10/20 08:15:12;;;;;;;12.80;5.32;;;14.50;71.60;;;;;;5094279;28;20033;-68
2022/10/20 08:17:37;;;;;;;7.85;4.82;;;14.50;72.50;;;;;;5094408;28;20024;-68
2022/10/20 08:20:04;;;;;;;9.25;4.70;;;14.60;71.60;;;;;;5094487;28;20035;-68
2022/10/20 08:22:30;;;;;;;7.60;5.05;;;14.70;71.80;;;;;;5094428;28;20039;-68
2022/10/20 08:24:56;;;;;;;6.95;4.80;;;14.90;72.30;;;;;;5094084;28;20024;-67
2022/10/20 08:27:21;;;;;;;12.82;5.55;;;15.10;71.30;;;;;;5094312;28;20073;-67
2022/10/20 08:29:47;;;;;;;6.45;5.25;;;15.30;70.80;;;;;;5093728;28;20031;-68
2022/10/20 08:32:13;;;;;;;9.38;5.53;;;15.40;69.70;;;;;;5094028;28;20103;-67
2022/10/20 08:34:39;;;;;;;10.48;5.25;;;15.50;69.00;;;;;;5094007;28;20111;-68
2022/10/20 08:37:05;;;;;;;9.88;5.40;;;15.60;69.60;;;;;;5094003;28;20094;-66
2022/10/20 08:39:31;;;;;;;7.88;4.60;;;15.60;68.60;;;;;;5094214;28;20036;-67
2022/10/20 08:41:58;;;;;;;7.00;5.13;;;15.70;67.00;;;;;;5093618;28;20047;-67
2022/10/20 08:44:27;;;;;;;8.75;5.10;;;15.70;67.30;;;;;;5094201;28;20039;-68
2022/10/20 08:46:53;;;;;;;8.15;5.18;;;15.80;67.80;;;;;;5093517;28;20472;-68
2022/10/20 08:49:29;;;;;;;6.45;5.13;;;15.80;66.30;;;;;;5094412;28;20028;-68
2022/10/20 08:51:55;;;;;;;9.80;4.72;;;15.90;66.60;;;;;;5092593;28;20114;-68
2022/10/20 08:54:21;;;;;;;6.75;4.47;;;15.90;65.10;;;;;;5073660;28;20070;-68
2022/10/20 08:56:47;;;;;;;6.93;4.60;;;16.00;64.10;;;;;;5073104;28;20469;-68
2022/10/20 08:59:36;;;;;;;6.35;4.60;;;16.00;63.90;;;;;;5073507;28;20111;-68
2022/10/20 09:02:11;;;;;;;6.63;4.03;;;16.00;63.70;;;;;;5072787;28;20029;-68
2022/10/20 09:04:43;;;;;;;7.43;4.22;;;16.00;63.70;;;;;;5073546;28;20049;-68
2022/10/20 09:07:27;;;;;;;8.60;4.55;;;16.00;63.80;;;;;;5073527;28;20024;-67
2022/10/20 09:10:14;;;;;;;9.43;4.63;;;16.00;64.30;;;;;;5072571;28;20037;-68
2022/10/20 09:12:41;;;;;;;7.63;4.90;;;16.10;63.60;;;;;;5072751;28;20372;-68
2022/10/20 09:15:11;;;;;;;6.85;4.20;;;16.20;63.70;;;;;;5073215;28;20024;-68
2022/10/20 09:17:39;;;;;;;7.25;3.65;;;16.30;61.60;;;;;;5073349;28;20028;-68
2022/10/20 09:20:11;;;;;;;7.38;3.58;;;16.30;60.80;;;;;;5073069;28;20107;-67
2022/10/20 09:22:37;;;;;;;7.03;3.55;;;16.30;60.70;;;;;;5073263;28;20027;-67
2022/10/20 09:25:03;;;;;;;4.53;3.65;;;16.30;60.40;;;;;;5072585;28;20469;-66
2022/10/20 09:27:35;;;;;;;4.55;3.20;;;16.30;60.10;;;;;;5072853;28;20024;-67
2022/10/20 09:30:27;;;;;;;11.20;3.95;;;16.20;60.30;;;;;;5072221;28;20036;-67
2022/10/20 09:32:53;;;;;;;6.85;3.90;;;16.30;60.40;;;;;;5072115;28;20377;-67
2022/10/20 09:35:32;;;;;;;8.25;3.35;;;16.30;60.20;;;;;;5072823;28;20036;-67
2022/10/20 09:38:00;;;;;;;6.38;3.50;;;16.30;60.50;;;;;;5072146;28;20647;-67
2022/10/20 09:40:27;;;;;;;4.05;3.05;;;16.40;60.00;;;;;;5072710;28;20078;-68
2022/10/20 09:43:10;;;;;;;5.95;3.50;;;16.50;60.20;;;;;;5072526;28;20027;-68
2022/10/20 09:45:45;;;;;;;6.65;3.78;;;16.50;60.20;;;;;;5073076;28;20107;-67
2022/10/20 09:48:26;;;;;;;3.25;2.85;;;16.50;59.50;;;;;;5072978;28;20051;-67
2022/10/20 09:50:54;;;;;;;6.78;3.60;;;16.50;59.50;;;;;;5072465;28;20028;-67
2022/10/20 09:53:34;;;;;;;3.45;2.90;;;16.50;59.90;;;;;;5072679;28;20419;-66
2022/10/20 09:56:00;;;;;;;6.53;3.25;;;16.50;59.50;;;;;;5071542;28;20115;-68
2022/10/20 09:58:30;;;;;;;3.55;2.95;;;16.50;60.10;;;;;;5072203;28;20055;-66
2022/10/20 10:01:02;;;;;;;4.15;2.78;;;16.50;59.50;;;;;;5072439;28;20032;-68
2022/10/20 10:03:36;;;;;;;5.03;3.13;;;16.60;60.00;;;;;;5072922;28;20051;-68
2022/10/20 10:06:19;;;;;;;8.35;3.35;;;16.60;59.40;;;;;;5073410;28;20029;-68
2022/10/20 10:08:46;;;;;;;6.03;3.30;;;16.60;59.70;;;;;;5092514;28;20459;-69
2022/10/20 10:11:27;;;;;;;4.15;3.40;;;16.60;59.50;;;;;;5092687;28;20082;-68
2022/10/20 10:13:53;;;;;;;3.90;2.90;;;16.70;59.30;;;;;;5092500;28;20052;-67
2022/10/20 10:16:21;;;;;;;6.35;2.75;;;16.70;58.90;;;;;;5092535;28;20028;-68
2022/10/20 10:19:02;;;;;;;4.10;3.05;;;16.70;59.40;;;;;;5092256;28;20028;-68
2022/10/20 10:21:52;;;;;;;4.18;3.03;;;16.70;59.60;;;;;;5092458;28;20064;-67
2022/10/20 10:24:45;;;;;;;6.15;3.00;;;16.60;58.90;;;;;;5093260;28;20074;-67
2022/10/20 10:27:21;;;;;;;6.32;3.28;;;16.60;59.60;;;;;;5096833;28;20089;-68
2022/10/20 10:29:47;;;;;;;8.05;3.00;;;16.60;59.60;;;;;;5078115;28;20358;-67
2022/10/20 10:32:27;;;;;;;7.13;3.28;;;16.50;60.00;;;;;;5096741;28;20070;-67
2022/10/20 10:35:07;;;;;;;6.47;3.13;;;16.50;59.90;;;;;;5096674;28;20032;-68
2022/10/20 10:37:33;;;;;;;4.70;2.95;;;16.50;60.50;;;;;;5096695;28;20049;-68
2022/10/20 10:40:00;;;;;;;4.03;2.88;;;16.50;60.00;;;;;;5096088;28;20032;-68
2022/10/20 10:42:36;;;;;;;8.10;3.03;;;16.50;60.20;;;;;;5096287;28;20381;-68
2022/10/20 10:45:02;;;;;;;6.60;3.20;;;16.40;60.30;;;;;;5096248;28;20103;-68
2022/10/20 10:47:38;;;;;;;4.15;2.70;;;16.50;60.80;;;;;;5096598;28;20531;-68
2022/10/20 10:50:28;;;;;;;4.13;2.80;;;16.50;60.40;;;;;;5095995;28;20036;-68
2022/10/20 10:52:59;;;;;;;5.80;2.75;;;16.50;60.20;;;;;;5096372;28;20024;-68
2022/10/20 10:55:29;;;;;;;6.60;3.10;;;16.50;60.60;;;;;;5096087;28;20108;-67
2022/10/20 10:58:23;;;;;;;4.47;2.53;;;16.40;60.50;;;;;;5095881;28;20036;-67
2022/10/20 11:01:38;;;;;;;5.22;3.10;;;16.30;60.60;;;;;;5095542;28;20035;-67
2022/10/20 11:04:27;;;;;;;10.18;3.40;;;16.30;60.60;;;;;;5032207;28;20032;-67
2022/10/20 11:07:00;;;;;;;7.38;3.55;;;16.40;61.20;;;;;;5095489;28;20029;-68
2022/10/20 11:09:49;;;;;;;5.18;3.33;;;16.40;60.80;;;;;;5095592;28;20388;-67
2022/10/20 11:12:43;;;;;;;4.65;2.60;;;16.40;60.80;;;;;;5065701;28;20052;-67
2022/10/20 11:15:30;;;;;;;3.92;2.95;;;16.50;60.90;;;;;;5095309;28;20123;-67
2022/10/20 11:18:18;;;;;;;7.45;3.33;;;16.50;60.70;;;;;;5095367;28;20028;-68
2022/10/20 11:21:16;;;;;;;6.28;3.00;;;16.60;60.60;;;;;;5095719;28;20036;-67
2022/10/20 11:24:18;;;;;;;7.55;3.30;;;16.70;60.60;;;;;;5095474;28;20032;-67
2022/10/20 11:26:49;;;;;;;4.45;2.58;;;16.70;60.30;;;;;;5095603;28;20028;-67
2022/10/20 11:29:31;;;;;;;6.63;2.85;;;16.70;60.80;;;;;;5095901;28;20028;-67
2022/10/20 11:31:56;;;;;;;3.80;2.60;;;16.70;60.80;;;;;;5095208;28;20036;-67
2022/10/20 11:34:44;;;;;;;5.95;3.10;;;16.70;60.90;;;;;;5095496;28;20146;-68
2022/10/20 11:37:18;;;;;;;9.88;2.85;;;16.80;60.90;;;;;;5094650;28;20058;-68
2022/10/20 11:40:13;;;;;;;5.05;3.35;;;16.90;61.00;;;;;;5095404;28;20127;-67
2022/10/20 11:43:14;;;;;;;3.10;2.50;;;17.00;60.60;;;;;;5095339;28;20388;-67
2022/10/20 11:46:12;;;;;;;2.88;2.58;;;17.10;60.40;;;;;;5095455;28;20032;-67
2022/10/20 11:48:41;;;;;;;5.07;3.00;;;17.10;60.20;;;;;;5039653;28;20088;-67
2022/10/20 11:51:16;;;;;;;3.83;2.63;;;17.00;60.50;;;;;;5094782;28;20036;-67
2022/10/20 11:54:01;;;;;;;4.85;3.28;;;17.10;60.40;;;;;;5092056;28;20024;-66
2022/10/20 11:56:35;;;;;;;6.22;3.22;;;17.00;60.50;;;;;;5055087;28;20124;-67
2022/10/20 11:59:19;;;;;;;4.95;3.00;;;17.10;60.60;;;;;;5054543;28;20386;-69
2022/10/20 12:02:21;;;;;;;4.15;2.97;;;17.10;60.30;;;;;;5055098;28;20043;-68
2022/10/20 12:05:23;;;;;;;4.30;2.72;;;17.10;60.60;;;;;;5054829;28;20025;-68
2022/10/20 12:08:18;;;;;;;3.65;3.08;;;17.00;60.40;;;;;;5086603;28;20025;-68
2022/10/20 12:10:50;;;;;;;6.47;3.58;;;16.90;60.80;;;;;;5093347;28;20058;-68
2022/10/20 12:13:31;;;;;;;4.57;2.80;;;16.90;61.40;;;;;;5094815;28;20091;-68
2022/10/20 12:15:56;;;;;;;8.30;2.90;;;17.00;61.20;;;;;;5094358;28;20027;-68
2022/10/20 12:18:34;;;;;;;4.85;2.92;;;17.00;61.60;;;;;;5094672;28;20028;-67
2022/10/20 12:21:08;;;;;;;4.63;2.70;;;17.10;61.50;;;;;;5094099;28;20043;-67
2022/10/20 12:23:47;;;;;;;4.60;2.40;;;17.00;61.40;;;;;;5094293;28;20055;-67
2022/10/20 12:26:28;;;;;;;6.22;3.00;;;16.90;61.70;;;;;;5094066;28;20032;-67
2022/10/20 12:28:58;;;;;;;5.25;2.35;;;16.80;62.00;;;;;;5094117;28;20028;-66
2022/10/20 12:31:44;;;;;;;4.80;2.65;;;16.70;62.50;;;;;;5094510;28;20111;-68
2022/10/20 12:34:22;;;;;;;5.60;2.78;;;16.70;63.00;;;;;;5093562;28;20028;-68
2022/10/20 12:36:48;;;;;;;5.88;3.08;;;16.60;63.30;;;;;;5094550;28;20031;-67
2022/10/20 12:39:21;;;;;;;4.55;3.10;;;16.50;63.80;;;;;;5093932;28;20411;-67
2022/10/20 12:42:02;;;;;;;4.97;3.10;;;16.40;63.60;;;;;;5093001;28;20031;-67
2022/10/20 12:44:39;;;;;;;4.15;2.72;;;16.30;64.50;;;;;;5094163;28;20094;-68
2022/10/20 12:47:06;;;;;;;7.57;3.00;;;16.20;64.90;;;;;;5093138;28;20059;-67
2022/10/20 12:49:44;;;;;;;7.10;2.80;;;16.20;65.20;;;;;;5094057;28;20060;-68
2022/10/20 12:52:22;;;;;;;5.68;2.75;;;16.20;65.40;;;;;;5093756;28;20527;-67
2022/10/20 12:55:01;;;;;;;4.88;2.97;;;16.10;65.40;;;;;;5094058;28;20032;-67
2022/10/20 12:57:34;;;;;;;5.28;2.58;;;16.10;65.60;;;;;;5094036;28;20093;-68
2022/10/20 13:00:00;;;;;;;3.90;2.60;;;16.00;66.00;;;;;;5093663;28;20036;-68
2022/10/20 13:02:25;;;;;;;4.72;2.67;;;16.00;66.20;;;;;;5093648;28;20465;-68
2022/10/20 13:05:06;;;;;;;4.90;2.45;;;15.90;66.30;;;;;;5092550;28;20031;-68
2022/10/20 13:07:46;;;;;;;7.70;2.70;;;15.90;66.80;;;;;;5093753;28;20024;-68
2022/10/20 13:10:31;;;;;;;3.70;2.50;;;15.80;66.80;;;;;;5093004;28;20028;-67